Aeroporto :
LOGIN :

Iscrizione | Disclaimer

   EN    FR    IT 

 










Sommario :    VFR   VFR Marginale   IFR   IFR Intensivo   IFR Molto Intensivo
Visibilità : 
Base nubi : 
>= 8 km
>= 3000ft
5 / 8 km
1000 / 3000 ft
1500m / 5 km
500 / 1000 ft
800 / 1500m
200 / 500 ft
< 800m
< 200 ft
Simboli :   Temporali  Nebbia  Neve Forte  Precipitazioni Forti  Vento > 20 kt
SIGMETs :   Varie  Temporali  Ghiacco  Turbolenza  Onda orograficha  Ceneri Vulcaniche







- Altitudine del aeroporto : 63 ft
- Codice IATA : BZM


EHWO - Woensdrecht Airbase

ULTIMO METAR :
  • 162055Z AUTO VRB01KT 9999 BKN031 BKN036 BKN059 15/14 Q1020 BLU

METARs OBSOLETI :
  • 162025Z AUTO VRB01KT 9999 FEW034 SCT038 16/14 Q1020 BLU
  • 161955Z AUTO 32002KT 9999 SCT033 SCT060 17/13 Q1020 BLU
  • 161925Z AUTO 30004KT 280V340 9999 SCT032 OVC061 18/14 Q1020 BLU
  • 161855Z AUTO 29003KT 250V310 9999 FEW040 BKN045 OVC051 19/14 Q1020 BLU
  • 161825Z AUTO 26006KT 240V300 9999 SCT060 BKN290 19/14 Q1020 BLU

Previsioni scadute.
Nessun NOTAM noto per questo aeroporto.



MetMap, La meteo Aeronautica in un colpo d'occhio ! - Copyright ORBIFLY Dicembre 2007 - Disclaimer

ORBIFLY MET'MAP TEAM :

Programmazione e sviluppo : Alexandra Zaïnal
Concezione e sviluppo : Baudouin d'Aumeries
Co-Programmazione e sviluppo : Marc-Olivier Méhu
Supporto tecnico e logistico : Manuel Goepfert
Aiuto per la traduzione : Arnaldo La Scala

Contatto : metmap@orbifly.com




FONTI E CREDITI :

   NOAA